Time;durP1;ratioP1;P1;durP2;ratioP2;P2;SDS_P1;SDS_P2;PMS_P1;PMS_P2;Temp;Humidity;BMP_temperature;BMP_pressure;BME280_temperature;BME280_humidity;BME280_pressure;Samples;Min_cycle;Max_cycle;Signal;HPM_P1;HPM_P2
2023/03/09 00:01:27;;;;;;;9.07;7.13;;;;;;;6.42;100.00;94305.59;4973191;28;104740;-63
2023/03/09 00:03:54;;;;;;;11.10;7.67;;;;;;;6.31;100.00;94292.75;4970032;28;105198;-63
2023/03/09 00:06:22;;;;;;;7.60;6.90;;;;;;;6.28;100.00;94291.44;4970737;28;101795;-63
2023/03/09 00:08:50;;;;;;;8.30;7.13;;;;;;;6.16;100.00;94283.06;4970415;28;103494;-63
2023/03/09 00:11:19;;;;;;;11.23;8.37;;;;;;;6.22;100.00;94295.16;4969748;28;105556;-63
2023/03/09 00:13:47;;;;;;;8.97;7.30;;;;;;;6.23;100.00;94290.69;4970447;28;101922;-63
2023/03/09 00:16:17;;;;;;;9.73;7.80;;;;;;;6.19;100.00;94318.69;4971922;28;102495;-63
2023/03/09 00:18:45;;;;;;;8.83;7.93;;;;;;;6.32;100.00;94310.19;4970812;28;102625;-63
2023/03/09 00:21:14;;;;;;;8.43;7.53;;;;;;;6.31;100.00;94327.03;4971830;28;101888;-63
2023/03/09 00:23:41;;;;;;;10.10;8.20;;;;;;;6.29;100.00;94329.97;4974320;28;102445;-63
2023/03/09 00:26:09;;;;;;;9.60;7.90;;;;;;;6.37;100.00;94334.66;4970370;28;102023;-63
2023/03/09 00:28:39;;;;;;;11.20;8.90;;;;;;;6.52;100.00;94331.13;4970227;28;105583;-63
2023/03/09 00:31:07;;;;;;;11.53;7.60;;;;;;;6.99;100.00;94328.66;4971097;28;103189;-63
2023/03/09 00:33:36;;;;;;;7.93;6.80;;;;;;;7.23;100.00;94303.06;4971313;28;101727;-63
2023/03/09 00:36:03;;;;;;;9.47;6.90;;;;;;;7.36;100.00;94286.53;4970183;28;105714;-63
2023/03/09 00:38:30;;;;;;;8.40;6.23;;;;;;;7.78;100.00;94274.13;4971018;28;102686;-63
2023/03/09 00:40:56;;;;;;;8.43;6.13;;;;;;;7.71;100.00;94257.03;4970032;28;101859;-63
2023/03/09 00:43:23;;;;;;;9.30;6.13;;;;;;;7.75;100.00;94292.44;4970008;28;104807;-63
2023/03/09 00:45:52;;;;;;;8.03;5.43;;;;;;;7.87;100.00;94288.31;4972710;28;105250;-63
2023/03/09 00:48:19;;;;;;;8.97;5.97;;;;;;;7.85;100.00;94279.84;4969146;28;105376;-63
2023/03/09 00:50:46;;;;;;;8.67;6.33;;;;;;;7.73;100.00;94265.47;4969196;28;105869;-63
2023/03/09 00:53:12;;;;;;;10.40;7.37;;;;;;;7.73;100.00;94270.75;4971330;28;101807;-63
2023/03/09 00:55:40;;;;;;;16.77;10.23;;;;;;;7.94;100.00;94262.28;4969984;28;105657;-63
2023/03/09 00:58:07;;;;;;;14.80;9.40;;;;;;;7.93;100.00;94263.34;4969801;28;102563;-63
2023/03/09 01:00:33;;;;;;;7.57;5.30;;;;;;;8.21;100.00;94257.16;4969713;28;102315;-63
2023/03/09 01:03:04;;;;;;;8.97;5.50;;;;;;;8.32;100.00;94263.09;4969252;28;104949;-63
2023/03/09 01:05:31;;;;;;;5.90;4.60;;;;;;;8.50;100.00;94278.19;4969045;28;106010;-63
2023/03/09 01:07:58;;;;;;;7.73;5.10;;;;;;;8.60;100.00;94262.94;4973042;28;101858;-63
2023/03/09 01:10:25;;;;;;;11.57;7.53;;;;;;;8.67;100.00;94267.88;4970553;28;101895;-63
2023/03/09 01:12:52;;;;;;;9.03;6.57;;;;;;;8.77;100.00;94268.47;4969289;28;101962;-63
2023/03/09 01:15:19;;;;;;;6.70;5.33;;;;;;;8.74;100.00;94284.97;4969638;28;105638;-63
2023/03/09 01:17:47;;;;;;;9.00;5.07;;;;;;;8.71;100.00;94276.78;4970303;28;102593;-63
2023/03/09 01:20:15;;;;;;;6.43;5.03;;;;;;;8.93;100.00;94295.50;4969473;28;101980;-63
2023/03/09 01:22:43;;;;;;;5.53;4.53;;;;;;;8.89;100.00;94299.81;4969373;28;105474;-63
2023/03/09 01:25:10;;;;;;;7.90;5.17;;;;;;;8.97;100.00;94292.00;4968872;28;105884;-63
2023/03/09 01:27:37;;;;;;;4.60;4.10;;;;;;;8.94;100.00;94265.28;4972654;28;101876;-63
2023/03/09 01:30:05;;;;;;;5.03;4.10;;;;;;;9.06;100.00;94257.66;4968634;28;103972;-63
2023/03/09 01:32:33;;;;;;;5.87;4.00;;;;;;;9.00;100.00;94266.78;4969336;28;101926;-63
2023/03/09 01:35:03;;;;;;;4.43;3.97;;;;;;;9.02;100.00;94248.69;4969359;28;104921;-63
2023/03/09 01:37:34;;;;;;;4.57;3.83;;;;;;;8.90;100.00;94254.47;4968618;28;105849;-63
2023/03/09 01:40:01;;;;;;;5.67;3.80;;;;;;;8.96;100.00;94245.38;4970692;28;101831;-63
2023/03/09 01:42:28;;;;;;;4.90;3.87;;;;;;;8.85;100.00;94249.28;4969241;28;105318;-63
2023/03/09 01:45:32;;;;;;;4.30;3.87;;;;;;;8.85;100.00;94243.19;4968359;28;104007;-63
2023/03/09 01:48:00;;;;;;;5.27;3.90;;;;;;;8.98;100.00;94242.41;4968640;28;101974;-63
2023/03/09 01:50:31;;;;;;;5.40;4.03;;;;;;;8.99;100.00;94241.34;4973325;28;102287;-63
2023/03/09 01:53:05;;;;;;;4.93;4.00;;;;;;;9.08;100.00;94255.47;4969066;28;101868;-63
2023/03/09 01:55:37;;;;;;;4.30;3.90;;;;;;;9.28;100.00;94258.56;4969089;28;104746;-63
2023/03/09 01:58:09;;;;;;;5.40;3.50;;;;;;;9.44;100.00;94253.78;4968351;28;105466;-63
2023/03/09 02:00:41;;;;;;;3.40;3.00;;;;;;;9.64;100.00;94248.84;4968103;28;102252;-63
2023/03/09 02:03:13;;;;;;;2.10;1.90;;;;;;;10.56;100.00;94250.03;4968788;28;104948;-63
2023/03/09 02:05:44;;;;;;;2.40;2.20;;;;;;;10.77;100.00;94264.44;4967936;28;105806;-63
2023/03/09 02:08:14;;;;;;;3.20;1.70;;;;;;;11.09;100.00;94269.50;4968896;28;101852;-63
2023/03/09 02:10:48;;;;;;;2.23;1.80;;;;;;;10.95;100.00;94276.75;4968894;28;105568;-63
2023/03/09 02:13:19;;;;;;;1.93;1.67;;;;;;;10.76;100.00;94251.44;4971651;28;105196;-63
2023/03/09 02:15:46;;;;;;;2.83;2.10;;;;;;;10.55;100.00;94231.75;4968971;28;105025;-63
2023/03/09 02:18:14;;;;;;;2.07;1.87;;;;;;;10.41;100.00;94204.47;4967804;28;105233;-63
2023/03/09 02:20:49;;;;;;;2.07;1.33;;;;;;;10.74;100.00;94192.47;4970170;28;101940;-63
2023/03/09 02:23:27;;;;;;;1.80;1.40;;;;;;;10.65;100.00;94194.28;4970267;28;102824;-63
2023/03/09 02:26:02;;;;;;;1.70;1.13;;;;;;;10.70;100.00;94202.16;4968156;28;105270;-63
2023/03/09 02:28:31;;;;;;;0.70;0.70;;;;;;;10.72;100.00;94171.53;4968698;28;101824;-63
2023/03/09 02:31:00;;;;;;;0.80;0.80;;;;;;;10.88;100.00;94179.88;4968467;28;105370;-63
2023/03/09 02:33:28;;;;;;;0.50;0.50;;;;;;;10.94;100.00;94197.28;4968215;28;105334;-63
2023/03/09 02:36:00;;;;;;;3.13;2.10;;;;;;;10.65;100.00;94183.66;4972054;28;101836;-63
2023/03/09 02:38:30;;;;;;;2.23;1.30;;;;;;;10.31;100.00;94186.09;4968038;28;105044;-63
2023/03/09 02:40:59;;;;;;;1.77;1.67;;;;;;;10.17;100.00;94188.00;4968314;28;101797;-63
2023/03/09 02:43:33;;;;;;;1.63;1.53;;;;;;;10.23;100.00;94213.34;4968643;28;104869;-63
2023/03/09 02:46:00;;;;;;;4.70;3.60;;;;;;;10.25;100.00;94205.91;4967911;28;105298;-63
2023/03/09 02:48:28;;;;;;;3.77;2.73;;;;;;;10.44;100.00;94214.47;4968123;28;101964;-63
2023/03/09 02:50:55;;;;;;;2.40;2.10;;;;;;;10.45;100.00;94221.34;4968429;28;104810;-63
2023/03/09 02:53:23;;;;;;;3.33;2.30;;;;;;;10.33;100.00;94218.44;4967665;28;105941;-63
2023/03/09 02:55:49;;;;;;;3.23;2.80;;;;;;;10.27;100.00;94219.66;4969535;28;101761;-63
2023/03/09 02:58:16;;;;;;;4.20;3.60;;;;;;;10.33;100.00;94207.81;4971254;28;105962;-63
2023/03/09 03:00:44;;;;;;;2.77;2.47;;;;;;;10.24;100.00;94204.31;4969862;28;102427;-63
2023/03/09 03:03:11;;;;;;;3.73;3.03;;;;;;;10.18;100.00;94216.91;4967947;28;106516;-63
2023/03/09 03:05:38;;;;;;;2.73;2.53;;;;;;;10.20;100.00;94254.56;4967889;28;105563;-63
2023/03/09 03:08:06;;;;;;;2.23;2.03;;;;;;;10.06;100.00;94239.75;4968072;28;101872;-63
2023/03/09 03:10:33;;;;;;;2.23;2.03;;;;;;;10.03;100.00;94230.50;4968320;28;104894;-63
2023/03/09 03:13:00;;;;;;;4.50;2.97;;;;;;;9.92;100.00;94236.34;4970858;28;105246;-63
2023/03/09 03:15:28;;;;;;;2.93;2.30;;;;;;;9.94;100.00;94234.97;4971367;28;101798;-63
2023/03/09 03:17:56;;;;;;;3.60;2.80;;;;;;;9.79;100.00;94245.88;4971401;28;105825;-63
2023/03/09 03:20:24;;;;;;;2.33;2.13;;;;;;;9.72;100.00;94263.28;4974231;28;105138;-63
2023/03/09 03:22:51;;;;;;;2.57;2.37;;;;;;;9.79;100.00;94250.41;4971276;28;104900;-63
2023/03/09 03:25:23;;;;;;;3.33;2.13;;;;;;;9.83;100.00;94262.00;4972049;28;102459;-63
2023/03/09 03:27:53;;;;;;;2.00;1.90;;;;;;;9.89;100.00;94266.91;4971299;28;102023;-63
2023/03/09 03:30:21;;;;;;;2.50;2.20;;;;;;;9.95;100.00;94264.94;4971326;28;104771;-63
2023/03/09 03:32:53;;;;;;;1.70;1.43;;;;;;;10.22;100.00;94259.59;4970569;28;103861;-63
2023/03/09 03:35:23;;;;;;;2.00;1.20;;;;;;;10.34;100.00;94265.97;4971091;28;102027;-63
2023/03/09 03:37:50;;;;;;;1.00;1.00;;;;;;;10.34;100.00;94273.13;4971086;28;105169;-63
2023/03/09 03:40:19;;;;;;;1.07;1.07;;;;;;;10.26;100.00;94289.78;4973801;28;105651;-63
2023/03/09 03:42:49;;;;;;;4.03;1.43;;;;;;;10.05;100.00;94305.38;4971299;28;105244;-63
2023/03/09 03:45:17;;;;;;;1.50;1.40;;;;;;;9.97;100.00;94313.22;4970489;28;105321;-63
2023/03/09 03:47:44;;;;;;;0.90;0.90;;;;;;;10.03;100.00;94274.88;4970288;28;101972;-63
2023/03/09 03:50:11;;;;;;;1.30;1.20;;;;;;;9.93;100.00;94291.75;4970874;28;105218;-63
2023/03/09 03:52:48;;;;;;;1.00;0.90;;;;;;;9.88;100.00;94280.47;4970261;28;105156;-63
2023/03/09 03:55:15;;;;;;;1.00;1.00;;;;;;;9.69;100.00;94261.22;4970865;28;101953;-63
2023/03/09 03:57:42;;;;;;;1.40;1.03;;;;;;;9.56;100.00;94278.72;4972382;28;102248;-63
2023/03/09 04:00:12;;;;;;;1.00;1.00;;;;;;;9.56;100.00;94280.59;4954080;28;104768;-63
2023/03/09 04:02:42;;;;;;;1.73;1.10;;;;;;;9.40;100.00;94287.25;4973919;28;101877;-63
2023/03/09 04:05:17;;;;;;;1.20;1.10;;;;;;;9.31;100.00;94297.75;4970160;28;105603;-63
2023/03/09 04:07:46;;;;;;;1.70;0.97;;;;;;;9.22;100.00;94309.34;4970085;28;102001;-63
2023/03/09 04:10:14;;;;;;;1.30;1.20;;;;;;;9.20;100.00;94311.47;4970604;28;105191;-63
2023/03/09 04:12:44;;;;;;;2.87;1.40;;;;;;;9.17;100.00;94294.28;4969894;28;105625;-63
2023/03/09 04:15:12;;;;;;;1.50;1.40;;;;;;;8.68;100.00;94299.34;4970599;28;101981;-63
2023/03/09 04:17:39;;;;;;;1.50;1.23;;;;;;;8.70;100.00;94307.00;4970345;28;105768;-63
2023/03/09 04:20:08;;;;;;;1.33;1.23;;;;;;;8.66;100.00;94306.00;4969539;28;105136;-63
2023/03/09 04:22:36;;;;;;;1.33;1.27;;;;;;;8.69;100.00;94324.78;4969615;28;101875;-63
2023/03/09 04:25:03;;;;;;;1.40;1.30;;;;;;;8.93;100.00;94314.06;4973129;28;104910;-63
2023/03/09 04:27:31;;;;;;;0.60;0.60;;;;;;;9.60;100.00;94298.25;4970283;28;101894;-63
2023/03/09 04:30:12;;;;;;;1.10;1.10;;;;;;;9.84;100.00;94308.69;4969886;28;105000;-63
2023/03/09 04:32:38;;;;;;;0.80;0.80;;;;;;;9.85;100.00;94299.63;4969620;28;105389;-63
2023/03/09 04:35:09;;;;;;;0.90;0.90;;;;;;;9.78;100.00;94308.03;4970320;28;102149;-63
2023/03/09 04:37:38;;;;;;;1.10;1.00;;;;;;;9.90;100.00;94318.13;4970231;28;105328;-63
2023/03/09 04:40:07;;;;;;;3.03;1.10;;;;;;;9.82;100.00;94300.25;4969324;28;104623;-63
2023/03/09 04:42:35;;;;;;;1.50;1.20;;;;;;;9.80;100.00;94292.56;4970019;28;101927;-63
2023/03/09 04:45:03;;;;;;;1.70;1.60;;;;;;;9.75;100.00;94286.59;4970050;28;105389;-63
2023/03/09 04:47:30;;;;;;;2.40;2.20;;;;;;;9.78;100.00;94302.72;4972733;28;105123;-63
2023/03/09 04:49:58;;;;;;;2.50;2.30;;;;;;;9.76;100.00;94298.78;4969896;28;105483;-63
2023/03/09 04:52:26;;;;;;;2.83;2.33;;;;;;;9.82;100.00;94295.72;4968886;28;105098;-63
2023/03/09 04:54:55;;;;;;;2.23;2.03;;;;;;;9.79;100.00;94304.28;4969860;28;101950;-63
2023/03/09 04:57:23;;;;;;;2.50;2.30;;;;;;;9.69;100.00;94291.19;4969917;28;104697;-63
2023/03/09 04:59:51;;;;;;;3.30;3.00;;;;;;;9.59;100.00;94291.38;4969268;28;105386;-63
2023/03/09 05:02:19;;;;;;;4.50;2.60;;;;;;;9.55;100.00;94263.09;4969322;28;102052;-63
2023/03/09 05:04:48;;;;;;;2.93;2.23;;;;;;;9.46;100.00;94278.13;4969442;28;106084;-63
2023/03/09 05:07:15;;;;;;;3.90;2.70;;;;;;;9.45;100.00;94309.19;4969073;28;105636;-63
2023/03/09 05:09:43;;;;;;;2.83;2.63;;;;;;;9.47;100.00;94317.63;4972954;28;101891;-63
2023/03/09 05:12:12;;;;;;;3.13;2.70;;;;;;;9.50;100.00;94321.56;4968775;28;105144;-63
2023/03/09 05:14:41;;;;;;;2.80;2.60;;;;;;;9.49;100.00;94327.94;4969631;28;102036;-63
2023/03/09 05:17:09;;;;;;;4.53;3.13;;;;;;;9.53;100.00;94347.47;4969504;28;105078;-63
2023/03/09 05:19:37;;;;;;;4.27;3.80;;;;;;;9.50;100.00;94356.03;4967926;28;105041;-63
2023/03/09 05:22:06;;;;;;;4.27;3.60;;;;;;;9.51;100.00;94370.88;4968519;28;102466;-64
2023/03/09 05:24:33;;;;;;;4.50;3.90;;;;;;;9.49;100.00;94373.03;4968771;28;102357;-63
2023/03/09 05:27:00;;;;;;;5.57;4.33;;;;;;;9.37;100.00;94359.47;4961955;28;105182;-64
2023/03/09 05:29:31;;;;;;;6.23;3.83;;;;;;;9.22;100.00;94373.75;4963614;28;102562;-63
2023/03/09 05:31:58;;;;;;;7.37;4.73;;;;;;;9.29;100.00;94390.09;4963783;28;105201;-64
2023/03/09 05:34:27;;;;;;;6.27;4.53;;;;;;;9.14;100.00;94413.41;4973118;28;101945;-64
2023/03/09 05:36:56;;;;;;;4.80;4.30;;;;;;;9.09;100.00;94408.16;4968918;28;105260;-64
2023/03/09 05:39:25;;;;;;;5.03;4.53;;;;;;;9.01;100.00;94420.22;4968929;28;105418;-64
2023/03/09 05:41:53;;;;;;;7.10;6.13;;;;;;;9.01;100.00;94408.84;4969156;28;101982;-64
2023/03/09 05:45:23;;;;;;;5.77;4.73;;;;;;;8.99;100.00;94416.28;4969391;28;104816;-64
2023/03/09 05:47:50;;;;;;;5.97;4.50;;;;;;;8.95;100.00;94439.16;4964376;28;105431;-64
2023/03/09 05:50:19;;;;;;;5.93;4.90;;;;;;;8.90;100.00;94458.53;4979317;28;101991;-63
2023/03/09 05:53:10;;;;;;;6.57;4.97;;;;;;;8.90;100.00;94478.97;4991689;28;105037;-63
2023/03/09 05:55:38;;;;;;;6.17;4.97;;;;;;;8.89;100.00;94498.59;4979169;28;101907;-63
2023/03/09 05:58:05;;;;;;;4.67;4.23;;;;;;;8.93;100.00;94536.69;4969405;28;105102;-63
2023/03/09 06:00:33;;;;;;;1.83;1.50;;;;;;;9.69;100.00;94553.13;4969167;28;105441;-63
2023/03/09 06:03:05;;;;;;;1.13;1.03;;;;;;;9.61;100.00;94567.06;4988683;28;102045;-64
2023/03/09 06:05:43;;;;;;;0.80;0.70;;;;;;;9.58;100.00;94567.63;4978004;28;105428;-64
2023/03/09 06:08:11;;;;;;;0.63;0.53;;;;;;;9.72;100.00;94609.09;4968466;28;105278;-63
2023/03/09 06:10:38;;;;;;;0.67;0.67;;;;;;;9.73;100.00;94583.31;4984385;28;101832;-63
2023/03/09 06:13:10;;;;;;;1.13;0.40;;;;;;;9.63;100.00;94602.03;4987963;28;103796;-62
2023/03/09 06:15:38;;;;;;;0.97;0.30;;;;;;;9.52;100.00;94596.09;4982179;28;105890;-64
2023/03/09 06:18:06;;;;;;;0.40;0.40;;;;;;;9.46;100.00;94602.56;4978985;28;103904;-64
2023/03/09 06:20:33;;;;;;;0.53;0.53;;;;;;;9.41;100.00;94626.50;4988081;28;105154;-63
2023/03/09 06:23:35;;;;;;;1.53;0.60;;;;;;;9.34;100.00;94633.22;4980847;28;101997;-64
2023/03/09 06:26:03;;;;;;;0.37;0.30;;;;;;;9.21;100.00;94636.59;4959798;28;103691;-63
2023/03/09 06:28:30;;;;;;;0.63;0.40;;;;;;;9.15;100.00;94643.00;4983576;28;105398;-63
2023/03/09 06:30:57;;;;;;;1.37;0.50;;;;;;;9.08;100.00;94658.47;4988606;28;102016;-63
2023/03/09 06:33:47;;;;;;;0.30;0.30;;;;;;;8.97;100.00;94660.44;4969387;28;105296;-64
2023/03/09 06:36:18;;;;;;;0.40;0.40;;;;;;;8.87;100.00;94671.16;4963255;28;105243;-64
2023/03/09 06:38:49;;;;;;;0.30;0.30;;;;;;;8.86;100.00;94674.06;4992078;28;101835;-64
2023/03/09 06:41:29;;;;;;;0.50;0.50;;;;;;;8.84;100.00;94673.56;4985440;28;104195;-64
2023/03/09 06:44:29;;;;;;;0.40;0.40;;;;;;;8.83;100.00;94674.66;4949131;28;101823;-64
2023/03/09 06:46:58;;;;;;;0.37;0.37;;;;;;;8.84;100.00;94695.56;4971236;28;104345;-64
2023/03/09 06:49:27;;;;;;;0.80;0.40;;;;;;;8.81;100.00;94690.03;4971479;28;103920;-64
2023/03/09 06:51:57;;;;;;;1.30;0.40;;;;;;;8.79;100.00;94710.72;4978014;28;101905;-64
2023/03/09 06:54:53;;;;;;;2.00;0.40;;;;;;;8.81;100.00;94733.22;4966731;28;105301;-64
2023/03/09 06:57:21;;;;;;;0.30;0.30;;;;;;;8.81;100.00;94727.13;4971033;28;104066;-64
2023/03/09 06:59:48;;;;;;;0.43;0.40;;;;;;;8.78;100.00;94733.00;4987651;28;101977;-64
2023/03/09 07:02:16;;;;;;;1.20;0.40;;;;;;;8.76;100.00;94745.72;4993593;28;105159;-65
2023/03/09 07:08:07;;;;;;;0.40;0.40;;;;;;;8.75;100.00;94760.84;4972365;28;103695;-64
2023/03/09 07:10:35;;;;;;;1.60;0.30;;;;;;;8.79;100.00;94788.34;4970575;28;104272;-64
2023/03/09 07:13:14;;;;;;;0.40;0.40;;;;;;;8.76;100.00;94801.38;4972607;28;101940;-64
2023/03/09 07:15:41;;;;;;;0.40;0.40;;;;;;;8.73;100.00;94794.00;4971304;28;105532;-64
2023/03/09 07:18:08;;;;;;;0.40;0.40;;;;;;;8.64;100.00;94804.38;4972543;28;105271;-65
2023/03/09 07:20:36;;;;;;;0.50;0.50;;;;;;;8.59;100.00;94801.78;4951900;28;101867;-64
2023/03/09 07:23:18;;;;;;;0.60;0.50;;;;;;;8.49;100.00;94804.50;4959595;28;105793;-64
2023/03/09 07:25:46;;;;;;;0.50;0.50;;;;;;;8.46;100.00;94814.84;4971404;28;102761;-65
2023/03/09 07:28:13;;;;;;;0.30;0.30;;;;;;;8.40;100.00;94826.53;4989237;28;103976;-64
2023/03/09 07:30:42;;;;;;;0.93;0.30;;;;;;;8.45;100.00;94834.47;4988468;28;105374;-64
2023/03/09 07:33:11;;;;;;;0.30;0.30;;;;;;;8.50;100.00;94839.72;4990695;28;102197;-64
2023/03/09 07:35:40;;;;;;;0.30;0.30;;;;;;;8.51;100.00;94841.31;4978362;28;104748;-65
2023/03/09 07:38:07;;;;;;;0.67;0.53;;;;;;;8.50;100.00;94848.44;4970742;28;105309;-65
2023/03/09 07:40:33;;;;;;;0.67;0.67;;;;;;;8.49;100.00;94861.97;4991730;28;101945;-65
2023/03/09 07:43:48;;;;;;;0.73;0.30;;;;;;;8.52;100.00;94872.81;4992142;28;102529;-65
2023/03/09 07:46:27;;;;;;;0.40;0.40;;;;;;;8.52;100.00;94864.06;4976528;28;105569;-65
2023/03/09 07:48:54;;;;;;;1.33;0.70;;;;;;;8.55;100.00;94882.06;4980358;28;101807;-65
2023/03/09 07:51:21;;;;;;;0.67;0.50;;;;;;;8.55;100.00;94882.84;4991662;28;102630;-65
2023/03/09 07:53:54;;;;;;;0.47;0.47;;;;;;;8.57;100.00;94907.22;4986805;28;102578;-65
2023/03/09 07:56:20;;;;;;;0.87;0.40;;;;;;;8.58;100.00;94898.22;4984028;28;105330;-64
2023/03/09 07:58:48;;;;;;;0.30;0.30;;;;;;;8.59;100.00;94926.28;4979833;28;105571;-64
2023/03/09 08:01:17;;;;;;;0.40;0.30;;;;;;;8.59;100.00;94902.44;4966108;28;101968;-64
2023/03/09 08:03:54;;;;;;;0.37;0.37;;;;;;;8.61;100.00;94902.19;4986967;28;105520;-64
2023/03/09 08:06:21;;;;;;;2.00;0.40;;;;;;;8.64;100.00;94912.22;4976771;28;104438;-65
2023/03/09 08:08:48;;;;;;;0.60;0.50;;;;;;;8.70;100.00;94909.28;4989119;28;101898;-65
2023/03/09 08:11:15;;;;;;;0.40;0.40;;;;;;;8.75;100.00;94913.75;4989858;28;105305;-64
2023/03/09 08:14:19;;;;;;;0.50;0.50;;;;;;;8.80;100.00;94917.16;4978411;28;101943;-63
2023/03/09 08:16:47;;;;;;;0.63;0.50;;;;;;;8.91;100.00;94925.84;4973530;28;106301;-62
2023/03/09 08:19:20;;;;;;;0.57;0.57;;;;;;;8.99;100.00;94930.56;4950449;28;105052;-65
2023/03/09 08:21:47;;;;;;;0.97;0.50;;;;;;;9.09;100.00;94938.44;4963441;28;101881;-64
2023/03/09 08:24:20;;;;;;;0.40;0.40;;;;;;;9.25;100.00;94934.59;4982415;28;105135;-64
2023/03/09 08:26:47;;;;;;;0.50;0.50;;;;;;;9.36;100.00;94936.91;4974487;28;105554;-65
2023/03/09 08:29:14;;;;;;;0.53;0.53;;;;;;;9.49;100.00;94924.88;4970065;28;103450;-64
2023/03/09 08:31:40;;;;;;;0.50;0.50;;;;;;;9.62;100.00;94935.63;4974597;28;102804;-64
2023/03/09 08:34:41;;;;;;;1.03;0.50;;;;;;;9.77;100.00;94937.34;4967037;28;102373;-64
2023/03/09 08:37:08;;;;;;;1.90;0.43;;;;;;;9.94;100.00;94943.03;4968923;28;105177;-64
2023/03/09 08:39:34;;;;;;;0.80;0.40;;;;;;;9.88;100.00;94950.22;4989485;28;105348;-64
2023/03/09 08:42:02;;;;;;;0.90;0.60;;;;;;;10.12;100.00;94947.63;4990252;28;101917;-64
2023/03/09 08:44:30;;;;;;;4.00;0.70;;;;;;;10.33;100.00;94973.72;4952116;28;102863;-64
2023/03/09 08:46:56;;;;;;;0.47;0.47;;;;;;;10.54;100.00;94963.63;4961812;28;105750;-64
2023/03/09 08:49:23;;;;;;;1.17;0.50;;;;;;;10.86;100.00;94971.75;4950590;28;101988;-64
2023/03/09 08:51:52;;;;;;;0.40;0.40;;;;;;;11.00;100.00;94981.38;4950564;28;105308;-64
2023/03/09 08:54:27;;;;;;;0.83;0.50;;;;;;;11.04;100.00;94979.75;4967906;28;105502;-64
2023/03/09 08:56:53;;;;;;;1.23;0.73;;;;;;;11.10;100.00;94983.09;4967977;28;105605;-63
2023/03/09 08:59:20;;;;;;;1.50;0.50;;;;;;;11.07;100.00;94978.38;4987456;28;105581;-64
2023/03/09 09:01:47;;;;;;;1.67;0.60;;;;;;;11.20;100.00;94993.63;4972341;28;102121;-64
2023/03/09 09:04:46;;;;;;;0.97;0.73;;;;;;;11.22;100.00;94981.59;4991186;28;104262;-64
2023/03/09 09:07:20;;;;;;;2.13;1.00;;;;;;;11.41;100.00;94989.59;4971707;28;105830;-64
2023/03/09 09:09:47;;;;;;;2.60;0.60;;;;;;;11.47;100.00;94994.56;4969725;28;101946;-64
2023/03/09 09:12:14;;;;;;;1.33;0.80;;;;;;;11.46;100.00;94990.28;4998010;28;105090;-64
2023/03/09 09:14:52;;;;;;;1.77;0.50;;;;;;;11.60;100.00;94993.03;4985278;28;105494;-64
2023/03/09 09:17:19;;;;;;;2.17;0.80;;;;;;;11.63;100.00;94993.28;4988142;28;102348;-64
2023/03/09 09:19:48;;;;;;;1.57;0.70;;;;;;;11.67;100.00;95004.91;4981141;28;105485;-64
2023/03/09 09:22:16;;;;;;;1.07;0.70;;;;;;;11.68;100.00;95008.38;4973023;28;102135;-64
2023/03/09 09:25:10;;;;;;;1.33;0.77;;;;;;;11.61;100.00;95016.72;4989517;28;105471;-64
2023/03/09 09:27:37;;;;;;;1.67;0.70;;;;;;;11.41;100.00;95010.88;4965735;28;105331;-64
2023/03/09 09:30:05;;;;;;;2.23;0.60;;;;;;;11.53;100.00;95022.69;4950007;28;102014;-64
2023/03/09 09:32:34;;;;;;;1.60;0.70;;;;;;;11.50;100.00;94999.28;4981148;28;103089;-64
2023/03/09 09:35:02;;;;;;;1.87;0.77;;;;;;;11.62;100.00;95017.53;4990371;28;102603;-64
2023/03/09 09:37:31;;;;;;;1.13;0.70;;;;;;;11.76;100.00;95010.38;4982140;28;101797;-65
2023/03/09 09:39:58;;;;;;;1.23;0.60;;;;;;;11.87;100.00;94999.28;4991476;28;102604;-64
2023/03/09 09:42:30;;;;;;;2.40;0.70;;;;;;;11.82;100.00;95003.91;4952175;28;102097;-64
2023/03/09 09:44:58;;;;;;;3.07;0.93;;;;;;;11.81;100.00;95015.59;4969353;28;105419;-65
2023/03/09 09:47:28;;;;;;;0.40;0.40;;;;;;;11.87;100.00;95003.78;4965059;28;105171;-64
2023/03/09 09:49:58;;;;;;;3.07;0.60;;;;;;;11.86;100.00;95007.53;4949775;28;101971;-64
2023/03/09 09:52:52;;;;;;;1.50;0.50;;;;;;;12.10;100.00;95029.53;4949744;28;105187;-65
2023/03/09 09:55:24;;;;;;;0.50;0.50;;;;;;;11.91;100.00;95026.09;4949015;28;105299;-64
2023/03/09 09:57:59;;;;;;;2.00;0.50;;;;;;;11.99;100.00;95006.81;4966192;28;101846;-64
2023/03/09 10:00:34;;;;;;;2.30;0.53;;;;;;;11.94;100.00;95028.19;4964290;28;104970;-64
2023/03/09 10:03:10;;;;;;;0.60;0.33;;;;;;;12.21;100.00;95020.28;4962423;28;101902;-64
2023/03/09 10:05:45;;;;;;;0.30;0.30;;;;;;;12.05;100.00;95009.06;4970449;28;102437;-65
2023/03/09 10:08:23;;;;;;;0.77;0.50;;;;;;;12.09;100.00;95022.59;4969915;28;102875;-64
2023/03/09 10:10:51;;;;;;;0.83;0.50;;;;;;;12.28;100.00;95021.50;4979847;28;101946;-66
2023/03/09 10:13:24;;;;;;;0.90;0.60;;;;;;;12.58;100.00;95010.25;4969876;28;105809;-64
2023/03/09 10:15:53;;;;;;;0.70;0.57;;;;;;;12.52;100.00;95056.75;4985279;28;103268;-64
2023/03/09 10:18:25;;;;;;;0.40;0.40;;;;;;;12.34;100.00;95025.63;4970235;28;102096;-65
2023/03/09 10:20:54;;;;;;;0.53;0.40;;;;;;;12.23;100.00;95034.09;4971235;28;101746;-64
2023/03/09 10:23:43;;;;;;;3.50;0.57;;;;;;;12.13;100.00;95040.41;4976775;28;103109;-64
2023/03/09 10:26:23;;;;;;;0.63;0.50;;;;;;;12.34;100.00;95019.50;4960302;28;103251;-64
2023/03/09 10:28:53;;;;;;;1.63;0.50;;;;;;;12.38;100.00;95069.25;4950115;28;106839;-64
2023/03/09 10:31:26;;;;;;;0.60;0.40;;;;;;;12.33;100.00;95040.03;4952671;28;101833;-64
2023/03/09 10:34:04;;;;;;;2.20;0.60;;;;;;;12.28;100.00;95018.03;4955015;28;105844;-65
2023/03/09 10:36:33;;;;;;;0.63;0.50;;;;;;;12.34;100.00;95036.31;4981799;28;102725;-65
2023/03/09 10:39:11;;;;;;;1.77;0.60;;;;;;;12.42;100.00;95016.19;4978619;28;101870;-64
2023/03/09 10:41:38;;;;;;;2.23;1.00;;;;;;;12.24;100.00;95025.81;4981233;28;105543;-64
2023/03/09 10:44:06;;;;;;;1.73;0.70;;;;;;;12.26;100.00;95036.19;4992777;28;102624;-63
2023/03/09 10:46:58;;;;;;;1.03;0.40;;;;;;;12.35;100.00;95027.22;4986443;28;101930;-64
2023/03/09 10:49:25;;;;;;;1.13;0.70;;;;;;;12.45;100.00;95031.56;4971540;28;105500;-63
2023/03/09 10:52:00;;;;;;;2.30;0.60;;;;;;;12.60;100.00;95017.97;4971966;28;102035;-63
2023/03/09 10:54:36;;;;;;;2.27;0.77;;;;;;;12.50;100.00;95024.28;4972021;28;104856;-63
2023/03/09 10:57:20;;;;;;;1.40;0.80;;;;;;;12.84;100.00;95024.69;4971229;28;105417;-63
2023/03/09 10:59:57;;;;;;;1.17;0.60;;;;;;;13.01;100.00;95024.09;4968780;28;102094;-63
2023/03/09 11:02:31;;;;;;;2.27;0.70;;;;;;;13.20;100.00;95016.78;4977358;28;105667;-64
2023/03/09 11:04:57;;;;;;;2.43;0.70;;;;;;;13.26;100.00;95015.56;4991195;28;105625;-64
2023/03/09 11:07:27;;;;;;;3.57;0.90;;;;;;;13.11;100.00;95029.22;4973143;28;102354;-64
2023/03/09 11:09:55;;;;;;;1.43;0.80;;;;;;;13.07;100.00;95017.56;4954923;28;105283;-64
2023/03/09 11:12:27;;;;;;;1.80;0.80;;;;;;;13.23;100.00;95046.31;4967616;28;102054;-64
2023/03/09 11:14:56;;;;;;;2.87;0.90;;;;;;;13.50;100.00;95026.78;4982043;28;105134;-64
2023/03/09 11:17:31;;;;;;;3.37;0.70;;;;;;;13.52;100.00;95017.38;4965153;28;105702;-64
2023/03/09 11:20:30;;;;;;;1.67;0.83;;;;;;;13.61;90.21;95018.25;4952167;28;101906;-64
2023/03/09 11:23:10;;;;;;;2.00;0.70;;;;;;;13.59;91.22;95017.78;4908979;28;105023;-64
2023/03/09 11:26:04;;;;;;;0.77;0.60;;;;;;;13.57;90.88;95027.19;4982537;28;102472;-64
2023/03/09 11:28:41;;;;;;;3.37;0.97;;;;;;;13.79;89.22;95021.84;4965914;28;103997;-64
2023/03/09 11:31:13;;;;;;;2.30;1.30;;;;;;;14.26;88.68;95011.34;4979503;28;105275;-64
2023/03/09 11:33:43;;;;;;;2.47;0.67;;;;;;;14.55;83.60;95008.19;4974542;28;102764;-64
2023/03/09 11:36:15;;;;;;;1.13;0.47;;;;;;;14.49;72.06;95004.84;4971098;28;103815;-64
2023/03/09 11:38:45;;;;;;;2.10;0.90;;;;;;;14.54;71.97;95009.28;4970642;28;105472;-64
2023/03/09 11:41:22;;;;;;;2.30;0.90;;;;;;;14.54;67.69;95006.59;4969416;28;102294;-64
2023/03/09 11:43:57;;;;;;;3.10;0.70;;;;;;;14.50;65.61;95002.97;4972769;28;102326;-64